Time,TemperatureF,DewpointF,PressureIn,WindDirection,WindDirectionDegrees,WindSpeedMPH,WindSpeedGustMPH,Humidity,HourlyPrecipIn,Conditions,Clouds,dailyrainin,SolarRadiationWatts/m^2,SoftwareType,DateUTC
2013-05-20 00:01:00,52.0,37.0,-100.00,NNW,340,12.0,21.0,56,-99.99,,,0.00,0.120000,,2013-05-20 06:01:00,
2013-05-20 00:11:00,52.0,37.0,-100.00,NNW,340,12.0,21.0,56,-99.99,,,0.00,0.120000,,2013-05-20 06:11:00,
2013-05-20 00:41:00,52.0,36.0,-100.00,NNW,338,13.0,21.0,55,-99.99,,,0.00,0.120000,,2013-05-20 06:41:00,
2013-05-20 00:52:00,52.0,36.0,-100.00,NNW,338,13.0,21.0,55,-99.99,,,0.00,0.120000,,2013-05-20 06:52:00,
2013-05-20 01:01:00,52.0,36.0,-100.00,NNW,338,13.0,21.0,55,-99.99,,,0.00,0.120000,,2013-05-20 07:01:00,
2013-05-20 01:11:00,52.0,36.0,-100.00,NNW,338,13.0,21.0,55,-99.99,,,0.00,0.120000,,2013-05-20 07:11:00,
2013-05-20 01:42:00,51.0,37.0,-100.00,NNW,346,13.0,21.0,59,-99.99,,,0.00,0.120000,,2013-05-20 07:42:00,
2013-05-20 01:52:00,51.0,37.0,-100.00,NNW,346,13.0,21.0,59,-99.99,,,0.00,0.120000,,2013-05-20 07:52:00,
2013-05-20 02:01:00,51.0,37.0,-100.00,NNW,346,13.0,21.0,59,-99.99,,,0.00,0.120000,,2013-05-20 08:01:00,
2013-05-20 02:11:00,51.0,37.0,-100.00,NNW,346,13.0,21.0,59,-99.99,,,0.00,0.120000,,2013-05-20 08:11:00,
2013-05-20 02:41:00,50.0,37.0,-100.00,North,358,10.0,16.0,60,-99.99,,,0.00,0.120000,,2013-05-20 08:41:00,
2013-05-20 02:52:00,50.0,37.0,-100.00,North,358,10.0,16.0,60,-99.99,,,0.00,0.120000,,2013-05-20 08:52:00,
2013-05-20 03:01:00,50.0,37.0,-100.00,North,358,10.0,16.0,60,-99.99,,,0.00,0.120000,,2013-05-20 09:01:00,
2013-05-20 03:12:00,50.0,37.0,-100.00,North,358,10.0,16.0,60,-99.99,,,0.00,0.120000,,2013-05-20 09:12:00,
2013-05-20 03:43:00,48.0,39.0,-100.00,NE,39,8.0,13.0,69,-99.99,,,0.00,0.120000,,2013-05-20 09:43:00,
2013-05-20 03:52:00,48.0,39.0,-100.00,NE,39,8.0,13.0,69,-99.99,,,0.00,0.120000,,2013-05-20 09:52:00,
2013-05-20 04:03:00,48.0,39.0,-100.00,NE,39,8.0,13.0,69,-99.99,,,0.00,0.120000,,2013-05-20 10:03:00,
2013-05-20 04:12:00,48.0,39.0,-100.00,NE,39,8.0,13.0,69,-99.99,,,0.00,0.120000,,2013-05-20 10:12:00,
2013-05-20 04:42:00,48.0,39.0,-100.00,NE,51,12.0,17.0,69,-99.99,,,0.00,0.120000,,2013-05-20 10:42:00,
2013-05-20 04:52:00,48.0,39.0,-100.00,NE,51,12.0,17.0,69,-99.99,,,0.00,0.120000,,2013-05-20 10:52:00,
2013-05-20 05:02:00,48.0,39.0,-100.00,NE,51,12.0,17.0,69,-99.99,,,0.00,0.120000,,2013-05-20 11:02:00,
2013-05-20 05:12:00,48.0,39.0,-100.00,NE,51,12.0,17.0,69,-99.99,,,0.00,0.120000,,2013-05-20 11:12:00,
2013-05-20 05:41:00,48.0,40.0,-100.00,NE,34,9.0,16.0,73,-99.99,,,0.00,0.120000,,2013-05-20 11:41:00,
2013-05-20 05:52:00,48.0,40.0,-100.00,NE,34,9.0,16.0,73,-99.99,,,0.00,0.120000,,2013-05-20 11:52:00,
2013-05-20 06:01:00,48.0,40.0,-100.00,NE,34,9.0,16.0,73,-99.99,,,0.00,0.120000,,2013-05-20 12:01:00,
2013-05-20 06:11:00,48.0,40.0,-100.00,NE,34,9.0,16.0,73,-99.99,,,0.00,0.120000,,2013-05-20 12:11:00,
2013-05-20 06:41:00,45.0,42.0,-100.00,NE,49,8.0,13.0,87,-99.99,,,-99.99,1.510000,,2013-05-20 12:41:00,
2013-05-20 06:52:00,45.0,42.0,-100.00,NE,49,8.0,13.0,87,-99.99,,,-99.99,1.510000,,2013-05-20 12:52:00,
2013-05-20 07:01:00,45.0,42.0,-100.00,NE,49,8.0,13.0,87,-99.99,,,0.00,1.510000,,2013-05-20 13:01:00,
2013-05-20 07:11:00,45.0,42.0,-100.00,NE,49,8.0,13.0,87,-99.99,,,0.00,1.510000,,2013-05-20 13:11:00,
2013-05-20 08:41:00,45.0,43.0,-100.00,NE,54,8.0,11.0,89,-99.99,,,0.00,41.610001,,2013-05-20 14:41:00,
2013-05-20 08:52:00,45.0,43.0,-100.00,NE,54,8.0,11.0,89,-99.99,,,0.00,41.610001,,2013-05-20 14:52:00,
2013-05-20 09:01:00,45.0,43.0,-100.00,NE,54,8.0,11.0,89,-99.99,,,0.00,41.610001,,2013-05-20 15:01:00,
2013-05-20 09:11:00,45.0,43.0,-100.00,NE,54,8.0,11.0,89,-99.99,,,0.00,41.610001,,2013-05-20 15:11:00,
2013-05-20 09:42:00,47.0,44.0,-100.00,NNE,30,3.0,6.0,89,-99.99,,,0.00,144.460007,,2013-05-20 15:42:00,
2013-05-20 09:53:00,47.0,44.0,-100.00,NNE,30,3.0,6.0,89,-99.99,,,0.00,144.460007,,2013-05-20 15:53:00,
2013-05-20 10:02:00,47.0,44.0,-100.00,NNE,30,3.0,6.0,89,-99.99,,,0.00,144.460007,,2013-05-20 16:02:00,
2013-05-20 10:12:00,47.0,44.0,-100.00,NNE,30,3.0,6.0,89,-99.99,,,0.00,144.460007,,2013-05-20 16:12:00,
2013-05-20 10:42:00,49.0,44.0,-100.00,ENE,60,7.0,12.0,83,-99.99,,,0.00,201.869995,,2013-05-20 16:42:00,
2013-05-20 10:53:00,49.0,44.0,-100.00,ENE,60,7.0,12.0,83,-99.99,,,0.00,201.869995,,2013-05-20 16:53:00,
2013-05-20 11:02:00,49.0,44.0,-100.00,ENE,60,7.0,12.0,83,-99.99,,,0.00,201.869995,,2013-05-20 17:02:00,
2013-05-20 11:11:00,49.0,44.0,-100.00,ENE,60,7.0,12.0,83,-99.99,,,0.00,201.869995,,2013-05-20 17:11:00,
2013-05-20 11:45:00,51.0,44.0,-100.00,NE,53,10.0,14.0,74,-99.99,,,0.00,426.290009,,2013-05-20 17:45:00,
2013-05-20 11:53:00,51.0,44.0,-100.00,NE,53,10.0,14.0,74,-99.99,,,0.00,426.290009,,2013-05-20 17:53:00,
2013-05-20 12:02:00,51.0,44.0,-100.00,NE,53,10.0,14.0,74,-99.99,,,0.00,426.290009,,2013-05-20 18:02:00,
2013-05-20 12:12:00,51.0,44.0,-100.00,NE,53,10.0,14.0,74,-99.99,,,0.00,426.290009,,2013-05-20 18:12:00,
2013-05-20 12:41:00,55.0,42.0,-100.00,NE,38,5.0,13.0,62,-99.99,,,0.00,695.929993,,2013-05-20 18:41:00,
2013-05-20 12:55:00,55.0,42.0,-100.00,NE,38,5.0,13.0,62,-99.99,,,0.00,695.929993,,2013-05-20 18:55:00,
2013-05-20 13:04:00,55.0,42.0,-100.00,NE,38,5.0,13.0,62,-99.99,,,0.00,695.929993,,2013-05-20 19:04:00,
2013-05-20 13:11:00,55.0,42.0,-100.00,NE,38,5.0,13.0,62,-99.99,,,0.00,695.929993,,2013-05-20 19:11:00,
2013-05-20 14:42:00,57.0,41.0,-100.00,NNE,16,5.0,9.0,54,-99.99,,,0.00,297.869995,,2013-05-20 20:42:00,
2013-05-20 14:52:00,57.0,41.0,-100.00,NNE,16,5.0,9.0,54,-99.99,,,0.00,297.869995,,2013-05-20 20:52:00,
2013-05-20 15:01:00,57.0,41.0,-100.00,NNE,16,5.0,9.0,54,-99.99,,,0.00,297.869995,,2013-05-20 21:01:00,
2013-05-20 15:11:00,57.0,41.0,-100.00,NNE,16,5.0,9.0,54,-99.99,,,0.00,297.869995,,2013-05-20 21:11:00,
2013-05-20 16:42:00,62.0,40.0,-100.00,NNW,338,7.0,16.0,43,-99.99,,,-99.99,837.950012,,2013-05-20 22:42:00,
2013-05-20 16:52:00,62.0,40.0,-100.00,NNW,338,7.0,16.0,43,-99.99,,,-99.99,837.950012,,2013-05-20 22:52:00,
2013-05-20 17:02:00,62.0,40.0,-100.00,NNW,338,7.0,16.0,43,-99.99,,,-99.99,837.950012,,2013-05-20 23:02:00,
2013-05-20 17:12:00,62.0,40.0,-100.00,NNW,338,7.0,16.0,43,-99.99,,,-99.99,837.950012,,2013-05-20 23:12:00,
2013-05-20 17:42:00,63.0,38.0,-100.00,North,351,6.0,12.0,40,-99.99,,,-99.99,681.859985,,2013-05-20 23:42:00,
2013-05-20 17:53:00,63.0,38.0,-100.00,North,351,6.0,12.0,40,-99.99,,,-99.99,681.859985,,2013-05-20 23:53:00,
2013-05-20 18:01:00,63.0,38.0,-100.00,North,351,6.0,12.0,40,-99.99,,,-99.99,681.859985,,2013-05-21 00:01:00,
2013-05-20 18:11:00,63.0,38.0,-100.00,North,351,6.0,12.0,40,-99.99,,,-99.99,681.859985,,2013-05-21 00:11:00,
2013-05-20 18:41:00,63.0,36.0,-100.00,North,9,5.0,9.0,36,-99.99,,,-99.99,495.790009,,2013-05-21 00:41:00,
2013-05-20 18:52:00,63.0,36.0,-100.00,North,9,5.0,9.0,36,-99.99,,,-99.99,495.790009,,2013-05-21 00:52:00,
2013-05-20 19:01:00,63.0,36.0,-100.00,North,9,5.0,9.0,36,-99.99,,,-99.99,495.790009,,2013-05-21 01:01:00,
2013-05-20 19:11:00,63.0,36.0,-100.00,North,9,5.0,9.0,36,-99.99,,,-99.99,495.790009,,2013-05-21 01:11:00,
2013-05-20 19:42:00,62.0,39.0,-100.00,North,355,8.0,12.0,41,-99.99,,,0.00,271.369995,,2013-05-21 01:42:00,
2013-05-20 19:53:00,62.0,39.0,-100.00,North,355,8.0,12.0,41,-99.99,,,0.00,271.369995,,2013-05-21 01:53:00,
2013-05-20 20:01:00,62.0,39.0,-100.00,North,355,8.0,12.0,41,-99.99,,,0.00,271.369995,,2013-05-21 02:01:00,
2013-05-20 20:11:00,62.0,39.0,-100.00,North,355,8.0,12.0,41,-99.99,,,0.00,271.369995,,2013-05-21 02:11:00,
2013-05-20 20:41:00,58.0,42.0,-100.00,East,98,5.0,7.0,55,-99.99,,,0.00,48.000000,,2013-05-21 02:41:00,
2013-05-20 20:52:00,58.0,42.0,-100.00,East,98,5.0,7.0,55,-99.99,,,0.00,48.000000,,2013-05-21 02:52:00,
2013-05-20 21:02:00,58.0,42.0,-100.00,East,98,5.0,7.0,55,-99.99,,,0.00,48.000000,,2013-05-21 03:02:00,
2013-05-20 21:11:00,58.0,42.0,-100.00,East,98,5.0,7.0,55,-99.99,,,0.00,48.000000,,2013-05-21 03:11:00,
2013-05-20 21:43:00,54.0,42.0,-100.00,East,90,3.0,7.0,65,-99.99,,,0.00,2.320000,,2013-05-21 03:43:00,
2013-05-20 21:53:00,54.0,42.0,-100.00,East,90,3.0,7.0,65,-99.99,,,0.00,2.320000,,2013-05-21 03:53:00,
2013-05-20 22:03:00,54.0,42.0,-100.00,East,90,3.0,7.0,65,-99.99,,,0.00,2.320000,,2013-05-21 04:03:00,
2013-05-20 22:12:00,54.0,42.0,-100.00,East,90,3.0,7.0,65,-99.99,,,0.00,2.320000,,2013-05-21 04:12:00,
2013-05-20 22:33:00,50.0,42.0,-100.00,WNW,303,7.0,11.0,73,-99.99,,,0.00,0.120000,,2013-05-21 04:33:00,
2013-05-20 22:42:00,50.0,42.0,-100.00,WNW,303,7.0,11.0,73,-99.99,,,0.00,0.120000,,2013-05-21 04:42:00,
2013-05-20 22:53:00,50.0,42.0,-100.00,WNW,303,7.0,11.0,73,-99.99,,,0.00,0.120000,,2013-05-21 04:53:00,
2013-05-20 23:02:00,50.0,42.0,-100.00,WNW,303,7.0,11.0,73,-99.99,,,0.00,0.120000,,2013-05-21 05:02:00,
2013-05-20 23:11:00,50.0,42.0,-100.00,WNW,303,7.0,11.0,73,-99.99,,,0.00,0.120000,,2013-05-21 05:11:00,
2013-05-20 23:32:00,50.0,41.0,-100.00,NW,304,6.0,14.0,71,-99.99,,,0.00,0.120000,,2013-05-21 05:32:00,
2013-05-20 23:42:00,50.0,41.0,-100.00,NW,304,6.0,14.0,71,-99.99,,,0.00,0.120000,,2013-05-21 05:42:00,
2013-05-20 23:52:00,50.0,41.0,-100.00,NW,304,6.0,14.0,71,-99.99,,,0.00,0.120000,,2013-05-21 05:52:00,